YPPF weather

Adelaide Parafield Airport
Adelaide, South Australia, Australia

Public forecast

Using degrees Celsius for public forecast. Weather courtesy of forecast.io.

METAR (pilot weather report)

Closest report is Adelaide International Airport, 10.4 nm (19.3 km) SSW. Retrieved 2018/05/28 03:00 UTC (3 minutes ago):

YPAD 280300Z 35015KT 9999 FEW038 SCT230 20/12 Q1013 NOSIG

TAF (pilot weather forecast)

Forecast is more than 12 hours old.

Closest forecast is Adelaide International Airport, 10.4 nm (19.3 km) SSW. Retrieved 2018/05/27 00:00 UTC (1 day ago):

TAF YPAD 272329Z 2800/2906 34015G25KT 9999 SCT035 FM281000 28016G30KT 9999 -SHRA SCT025 BKN035 FM281900 26014KT 9999 SCT030 FM290200 27018KT 9999 -SHRA BKN030 INTER 2810/2815 5000 SHRA SCT015 BKN020 INTER 2902/2906 5000 SHRA SCT020 BKN030